createdAt,value
2023-01-28T00:02:13.943Z,95.19
2023-01-28T00:04:42.277Z,94.67
2023-01-28T00:07:10.168Z,94.87
2023-01-28T00:09:39.670Z,94.70
2023-01-28T00:12:07.929Z,94.74
2023-01-28T00:14:35.756Z,94.40
2023-01-28T00:17:06.168Z,94.46
2023-01-28T00:19:34.336Z,95.02
2023-01-28T00:22:02.691Z,94.90
2023-01-28T00:24:31.126Z,94.98
2023-01-28T00:26:59.270Z,94.87
2023-01-28T00:29:27.417Z,94.96
2023-01-28T00:31:55.500Z,94.96
2023-01-28T00:34:23.753Z,95.01
2023-01-28T00:36:58.073Z,94.94
2023-01-28T00:39:27.272Z,94.89
2023-01-28T00:41:55.093Z,94.96
2023-01-28T00:44:25.383Z,95.06
2023-01-28T00:46:53.763Z,94.84
2023-01-28T00:49:23.364Z,94.88
2023-01-28T00:51:51.218Z,94.76
2023-01-28T00:54:19.452Z,94.96
2023-01-28T00:56:47.554Z,95.29
2023-01-28T00:59:15.626Z,95.57
2023-01-28T01:01:44.647Z,95.68
2023-01-28T01:04:12.617Z,96.39
2023-01-28T01:06:41.962Z,96.79
2023-01-28T01:09:13.620Z,96.77
2023-01-28T01:11:44.663Z,96.90
2023-01-28T01:14:13.153Z,96.57
2023-01-28T01:16:41.207Z,96.06
2023-01-28T01:19:09.684Z,96.17
2023-01-28T01:21:41.151Z,96.39
2023-01-28T01:24:09.089Z,96.51
2023-01-28T01:26:40.186Z,96.22
2023-01-28T01:29:10.128Z,96.19
2023-01-28T01:31:38.650Z,96.33
2023-01-28T01:34:10.173Z,97.10
2023-01-28T01:36:38.294Z,96.64
2023-01-28T01:39:06.116Z,96.67
2023-01-28T01:41:33.994Z,96.80
2023-01-28T01:44:04.560Z,96.80
2023-01-28T01:46:51.306Z,96.50
2023-01-28T01:49:26.257Z,96.66
2023-01-28T01:52:02.354Z,96.73
2023-01-28T01:54:38.489Z,96.93
2023-01-28T01:57:10.398Z,96.66
2023-01-28T01:59:40.549Z,96.98
2023-01-28T02:02:10.185Z,96.69
2023-01-28T02:04:44.908Z,96.56
2023-01-28T02:07:17.282Z,96.06
2023-01-28T02:09:48.621Z,96.12
2023-01-28T02:12:23.590Z,96.81
2023-01-28T02:14:55.950Z,97.06
2023-01-28T02:17:25.190Z,96.31
2023-01-28T02:20:08.275Z,96.40
2023-01-28T02:23:07.297Z,96.98
2023-01-28T02:26:24.168Z,97.43
2023-01-28T02:29:16.694Z,96.98
2023-01-28T02:31:59.218Z,96.94
2023-01-28T02:34:44.481Z,97.04
2023-01-28T02:37:22.399Z,97.30
2023-01-28T02:39:56.831Z,96.80
2023-01-28T02:42:30.028Z,97.27
2023-01-28T02:44:58.540Z,96.97
2023-01-28T02:47:48.409Z,97.21
2023-01-28T02:50:20.525Z,97.39
2023-01-28T02:53:44.353Z,96.84
2023-01-28T02:56:29.832Z,96.69
2023-01-28T02:59:31.257Z,97.48
2023-01-28T03:02:37.762Z,97.24
2023-01-28T03:05:26.643Z,96.97
2023-01-28T03:07:55.439Z,97.12
2023-01-28T03:10:27.038Z,96.96
2023-01-28T03:13:16.556Z,97.07
2023-01-28T03:16:08.051Z,96.80
2023-01-28T03:18:57.554Z,96.81
2023-01-28T03:21:57.816Z,96.91
2023-01-28T03:24:51.782Z,95.90
2023-01-28T03:27:50.700Z,96.72
2023-01-28T03:30:47.685Z,97.10
2023-01-28T03:33:36.105Z,96.69
2023-01-28T03:36:23.982Z,97.69
2023-01-28T03:38:52.039Z,97.02
2023-01-28T03:41:26.680Z,96.96
2023-01-28T03:43:55.095Z,97.25
2023-01-28T03:46:23.580Z,96.88
2023-01-28T03:48:51.516Z,95.49
2023-01-28T03:51:19.442Z,95.90
2023-01-28T03:53:47.970Z,95.31
2023-01-28T03:56:18.691Z,95.65
2023-01-28T03:58:53.675Z,95.88
2023-01-28T04:01:22.302Z,96.11
2023-01-28T04:03:51.002Z,96.23
2023-01-28T04:06:19.203Z,96.35
2023-01-28T04:08:54.012Z,95.96
2023-01-28T04:11:28.865Z,96.20
2023-01-28T04:13:56.943Z,96.87
2023-01-28T04:16:25.760Z,96.62
2023-01-28T04:18:54.709Z,96.38
2023-01-28T04:21:22.847Z,96.37
2023-01-28T04:23:51.443Z,96.50
2023-01-28T04:26:19.344Z,96.20
2023-01-28T04:28:47.586Z,96.35
2023-01-28T04:31:15.940Z,96.02
2023-01-28T04:33:43.970Z,95.74
2023-01-28T04:36:12.071Z,96.17
2023-01-28T04:38:41.364Z,96.37
2023-01-28T04:41:12.094Z,97.28
2023-01-28T04:43:44.844Z,95.92
2023-01-28T04:46:18.066Z,95.45
2023-01-28T04:48:47.378Z,96.23
2023-01-28T04:51:16.474Z,96.07
2023-01-28T04:53:45.227Z,95.97
2023-01-28T04:56:15.104Z,95.52
2023-01-28T04:58:46.939Z,95.44
2023-01-28T05:01:15.128Z,95.29
2023-01-28T05:03:43.408Z,95.35
2023-01-28T05:06:12.452Z,95.95
2023-01-28T05:08:40.491Z,96.04
2023-01-28T05:11:08.944Z,96.33
2023-01-28T05:13:37.083Z,96.20
2023-01-28T05:16:05.700Z,95.90
2023-01-28T05:18:34.023Z,95.72
2023-01-28T05:21:05.742Z,96.90
2023-01-28T05:23:34.498Z,96.60
2023-01-28T05:26:02.278Z,96.44
2023-01-28T05:28:30.608Z,96.82
2023-01-28T05:31:07.538Z,96.71
2023-01-28T05:33:35.511Z,95.78
2023-01-28T05:36:05.311Z,96.09
2023-01-28T05:38:33.056Z,95.87
2023-01-28T05:41:00.984Z,96.71
2023-01-28T05:43:29.669Z,97.28
2023-01-28T05:46:00.233Z,97.00
2023-01-28T05:48:28.285Z,97.28
2023-01-28T05:50:57.433Z,96.77
2023-01-28T05:53:26.556Z,96.79
2023-01-28T05:55:54.740Z,96.42
2023-01-28T05:58:23.606Z,96.33
2023-01-28T06:00:56.741Z,95.24
2023-01-28T06:03:25.736Z,95.26
2023-01-28T06:05:53.765Z,95.04
2023-01-28T06:08:22.332Z,94.54
2023-01-28T06:10:53.700Z,94.42
2023-01-28T06:13:22.115Z,94.35
2023-01-28T06:15:53.217Z,94.44
2023-01-28T06:18:22.796Z,94.13
2023-01-28T06:20:51.519Z,93.59
2023-01-28T06:23:25.460Z,93.44
2023-01-28T06:25:55.961Z,94.31
2023-01-28T06:28:25.448Z,93.56
2023-01-28T06:30:54.120Z,93.28
2023-01-28T06:33:25.278Z,92.74
2023-01-28T06:35:53.947Z,92.78
2023-01-28T06:38:21.871Z,92.13
2023-01-28T06:40:56.353Z,92.53
2023-01-28T06:43:33.910Z,91.86
2023-01-28T06:46:02.807Z,91.63
2023-01-28T06:48:31.118Z,91.35
2023-01-28T06:50:59.587Z,91.49
2023-01-28T06:53:28.636Z,90.87
2023-01-28T06:55:58.509Z,90.61
2023-01-28T06:58:26.763Z,90.34
2023-01-28T07:00:55.613Z,90.40
2023-01-28T07:03:24.470Z,90.72
2023-01-28T07:05:53.546Z,90.46
2023-01-28T07:08:21.774Z,90.59
2023-01-28T07:10:50.655Z,90.29
2023-01-28T07:13:18.577Z,89.70
2023-01-28T07:15:46.587Z,89.63
2023-01-28T07:18:14.865Z,89.21
2023-01-28T07:20:43.569Z,88.99
2023-01-28T07:23:12.862Z,88.48
2023-01-28T07:25:42.224Z,88.32
2023-01-28T07:28:12.809Z,88.50
2023-01-28T07:30:43.884Z,89.09
2023-01-28T07:33:12.813Z,89.01
2023-01-28T07:35:42.062Z,88.72
2023-01-28T07:38:10.927Z,88.68
2023-01-28T07:40:39.549Z,88.61
2023-01-28T07:43:10.575Z,88.17
2023-01-28T07:45:38.985Z,87.97
2023-01-28T07:48:08.970Z,87.69
2023-01-28T07:50:38.754Z,87.59
2023-01-28T07:53:09.722Z,87.24
2023-01-28T07:55:39.827Z,87.31
2023-01-28T07:58:09.327Z,87.41
2023-01-28T08:00:40.248Z,87.30
2023-01-28T08:03:16.385Z,88.03
2023-01-28T08:05:50.734Z,87.45
2023-01-28T08:08:19.715Z,87.59
2023-01-28T08:10:49.479Z,87.77
2023-01-28T08:13:19.085Z,88.20
2023-01-28T08:15:48.806Z,87.18
2023-01-28T08:18:17.879Z,87.25
2023-01-28T08:20:48.159Z,87.28
2023-01-28T08:23:19.756Z,87.64
2023-01-28T08:25:49.325Z,88.64
2023-01-28T08:28:18.040Z,88.44
2023-01-28T08:30:47.616Z,87.33
2023-01-28T08:33:19.468Z,87.39
2023-01-28T08:35:50.676Z,86.72
2023-01-28T08:38:22.670Z,86.17
2023-01-28T08:40:55.900Z,85.63
2023-01-28T08:43:24.863Z,84.94
2023-01-28T08:45:54.130Z,84.40
2023-01-28T08:48:22.468Z,85.00
2023-01-28T08:50:51.209Z,84.39
2023-01-28T08:53:23.192Z,83.91
2023-01-28T08:55:55.577Z,83.41
2023-01-28T08:58:25.958Z,83.33
2023-01-28T09:00:54.785Z,83.33
2023-01-28T09:03:25.490Z,82.87
2023-01-28T09:05:53.964Z,83.00
2023-01-28T09:08:25.486Z,82.97
2023-01-28T09:11:02.461Z,82.86
2023-01-28T09:13:31.996Z,82.47
2023-01-28T09:16:01.481Z,82.26
2023-01-28T09:18:30.769Z,82.20
2023-01-28T09:21:01.218Z,81.94
2023-01-28T09:23:29.655Z,81.76
2023-01-28T09:26:02.531Z,81.53
2023-01-28T09:28:32.537Z,81.81
2023-01-28T09:31:08.704Z,81.87
2023-01-28T09:33:41.462Z,81.41
2023-01-28T09:36:16.034Z,81.75
2023-01-28T09:42:03.476Z,80.86
2023-01-28T09:44:44.582Z,80.75
2023-01-28T09:47:41.278Z,80.68
2023-01-28T09:50:22.181Z,80.67
2023-01-28T09:52:56.565Z,81.06
2023-01-28T09:55:36.070Z,80.17
2023-01-28T09:58:11.717Z,80.28
2023-01-28T10:01:03.955Z,79.78
2023-01-28T10:03:52.786Z,78.91
2023-01-28T10:06:40.938Z,79.86
2023-01-28T10:09:44.631Z,79.80
2023-01-28T10:13:00.450Z,79.75
2023-01-28T10:15:57.123Z,79.95
2023-01-28T10:18:45.160Z,79.63
2023-01-28T10:21:48.197Z,80.25
2023-01-28T10:24:27.274Z,80.89
2023-01-28T10:26:59.380Z,80.56
2023-01-28T10:29:35.747Z,80.64
2023-01-28T10:32:34.793Z,80.50
2023-01-28T10:35:05.306Z,80.72
2023-01-28T10:37:39.846Z,81.41
2023-01-28T10:40:16.876Z,80.77
2023-01-28T10:42:48.830Z,80.93
2023-01-28T10:45:23.468Z,81.37
2023-01-28T10:48:11.020Z,81.17
2023-01-28T10:50:53.143Z,81.35
2023-01-28T10:53:43.704Z,81.36
2023-01-28T10:56:18.984Z,81.32
2023-01-28T10:59:09.846Z,81.71
2023-01-28T11:01:47.920Z,81.77
2023-01-28T11:04:24.199Z,81.76
2023-01-28T11:07:24.534Z,81.83
2023-01-28T11:09:55.464Z,81.40
2023-01-28T11:12:29.112Z,82.35
2023-01-28T11:15:01.701Z,81.81
2023-01-28T11:17:36.866Z,82.57
2023-01-28T11:20:24.228Z,81.52
2023-01-28T11:22:52.342Z,81.49
2023-01-28T11:25:38.939Z,82.12
2023-01-28T11:28:20.737Z,81.81
2023-01-28T11:30:55.692Z,82.13
2023-01-28T11:33:34.534Z,81.59
2023-01-28T11:36:25.302Z,81.14
2023-01-28T11:38:54.697Z,81.59
2023-01-28T11:41:34.270Z,82.27
2023-01-28T11:44:27.273Z,81.83
2023-01-28T11:47:10.082Z,81.84
2023-01-28T11:50:13.751Z,82.25
2023-01-28T11:53:06.876Z,82.45
2023-01-28T11:56:02.485Z,82.94
2023-01-28T11:58:52.779Z,82.07
2023-01-28T12:01:49.990Z,82.55
2023-01-28T12:04:47.629Z,82.71
2023-01-28T12:07:36.358Z,82.55
2023-01-28T12:10:29.911Z,82.59
2023-01-28T12:13:15.141Z,82.66
2023-01-28T12:16:04.096Z,82.99
2023-01-28T12:18:54.047Z,83.66
2023-01-28T12:21:59.726Z,83.79
2023-01-28T12:24:32.777Z,83.74
2023-01-28T12:27:15.802Z,84.02
2023-01-28T12:30:11.331Z,84.01
2023-01-28T12:32:51.354Z,84.46
2023-01-28T12:35:53.958Z,84.76
2023-01-28T12:38:48.468Z,85.25
2023-01-28T12:41:33.603Z,84.53
2023-01-28T12:44:11.984Z,84.64
2023-01-28T12:46:56.515Z,85.23
2023-01-28T12:49:33.809Z,85.54
2023-01-28T12:52:36.349Z,85.37
2023-01-28T12:55:38.770Z,85.54
2023-01-28T12:58:20.672Z,85.82
2023-01-28T13:00:55.032Z,86.42
2023-01-28T13:03:51.468Z,86.53
2023-01-28T13:06:48.905Z,86.66
2023-01-28T13:09:26.865Z,86.52
2023-01-28T13:12:00.725Z,86.56
2023-01-28T13:14:32.801Z,86.59
2023-01-28T13:17:15.720Z,86.42
2023-01-28T13:19:47.957Z,86.69
2023-01-28T13:22:44.020Z,86.70
2023-01-28T13:25:34.115Z,87.01
2023-01-28T13:28:33.583Z,87.27
2023-01-28T13:31:08.948Z,87.07
2023-01-28T13:33:46.129Z,87.35
2023-01-28T13:36:34.153Z,87.10
2023-01-28T13:39:16.346Z,87.14
2023-01-28T13:41:53.791Z,87.35
2023-01-28T13:44:35.929Z,87.42
2023-01-28T13:47:10.058Z,87.65
2023-01-28T13:49:51.954Z,87.86
2023-01-28T13:52:51.371Z,87.94
2023-01-28T13:55:42.632Z,87.94
2023-01-28T13:58:13.669Z,88.18
2023-01-28T14:00:55.513Z,88.23
2023-01-28T14:03:49.503Z,88.33
2023-01-28T14:06:58.386Z,88.27
2023-01-28T14:09:45.178Z,88.13
2023-01-28T14:12:47.289Z,88.38
2023-01-28T14:15:58.728Z,88.44
2023-01-28T14:18:37.060Z,88.26
2023-01-28T14:21:20.068Z,88.60
2023-01-28T14:23:55.347Z,88.79
2023-01-28T14:26:41.296Z,88.86
2023-01-28T14:29:21.803Z,89.15
2023-01-28T14:31:52.710Z,89.18
2023-01-28T14:34:36.096Z,89.33
2023-01-28T14:37:21.827Z,89.50
2023-01-28T14:40:00.339Z,89.54
2023-01-28T14:42:34.700Z,89.62
2023-01-28T14:45:38.420Z,89.45
2023-01-28T14:48:26.897Z,89.29
2023-01-28T14:51:34.615Z,89.47
2023-01-28T14:54:30.908Z,89.60
2023-01-28T14:57:20.949Z,89.72
2023-01-28T15:00:00.559Z,89.80
2023-01-28T15:02:34.691Z,89.97
2023-01-28T15:05:33.339Z,89.97
2023-01-28T15:08:05.163Z,89.97
2023-01-28T15:10:40.122Z,89.97
2023-01-28T15:13:14.933Z,89.99
2023-01-28T15:15:56.074Z,90.15
2023-01-28T15:18:35.845Z,90.28
2023-01-28T15:21:08.720Z,90.39
2023-01-28T15:23:46.017Z,90.57
2023-01-28T15:26:23.168Z,90.70
2023-01-28T15:28:58.453Z,90.73
2023-01-28T15:31:41.230Z,90.79
2023-01-28T15:34:18.218Z,90.75
2023-01-28T15:36:50.605Z,90.79
2023-01-28T15:39:23.953Z,90.96
2023-01-28T15:42:04.808Z,91.04
2023-01-28T15:44:49.942Z,90.97
2023-01-28T15:47:32.641Z,90.87
2023-01-28T15:50:08.598Z,90.97
2023-01-28T15:52:43.392Z,90.98
2023-01-28T15:55:26.434Z,90.91
2023-01-28T15:57:57.969Z,90.81
2023-01-28T16:00:29.511Z,91.02
2023-01-28T16:03:18.709Z,91.00
2023-01-28T16:06:03.759Z,91.05
2023-01-28T16:09:07.748Z,91.12
2023-01-28T16:11:45.228Z,91.20
2023-01-28T16:15:07.118Z,91.41
2023-01-28T16:17:48.139Z,91.47
2023-01-28T16:20:31.110Z,91.53
2023-01-28T16:23:06.466Z,91.58
2023-01-28T16:25:40.760Z,91.64
2023-01-28T16:28:22.329Z,91.56
2023-01-28T16:30:53.722Z,91.32
2023-01-28T16:33:26.457Z,91.35
2023-01-28T16:36:07.985Z,91.42
2023-01-28T16:38:39.691Z,91.54
2023-01-28T16:41:24.218Z,91.57
2023-01-28T16:43:52.802Z,91.59
2023-01-28T16:46:28.370Z,91.79
2023-01-28T16:49:05.210Z,91.95
2023-01-28T16:51:38.745Z,91.91
2023-01-28T16:54:16.803Z,92.09
2023-01-28T16:56:55.490Z,91.98
2023-01-28T16:59:28.038Z,92.00
2023-01-28T17:01:59.248Z,92.20
2023-01-28T17:04:30.382Z,92.41
2023-01-28T17:06:59.955Z,92.45
2023-01-28T17:09:32.780Z,92.43
2023-01-28T17:12:12.282Z,92.40
2023-01-28T17:14:48.525Z,92.38
2023-01-28T17:17:16.659Z,92.40
2023-01-28T17:19:47.485Z,92.46
2023-01-28T17:22:20.680Z,92.74
2023-01-28T17:24:51.537Z,92.67
2023-01-28T17:27:23.535Z,92.86
2023-01-28T17:29:55.831Z,92.86
2023-01-28T17:32:27.371Z,92.86
2023-01-28T17:34:58.791Z,92.96
2023-01-28T17:37:28.895Z,92.89
2023-01-28T17:40:01.629Z,92.97
2023-01-28T17:42:32.287Z,93.04
2023-01-28T17:45:06.328Z,93.07
2023-01-28T17:47:40.771Z,93.11
2023-01-28T17:50:12.464Z,93.15
2023-01-28T17:52:43.786Z,93.11
2023-01-28T17:55:16.272Z,93.03
2023-01-28T17:57:48.948Z,92.91
2023-01-28T18:00:20.878Z,92.89
2023-01-28T18:02:55.649Z,92.85
2023-01-28T18:05:25.555Z,93.03
2023-01-28T18:07:57.674Z,93.32
2023-01-28T18:10:31.080Z,93.51
2023-01-28T18:12:59.371Z,93.59
2023-01-28T18:15:29.048Z,93.63
2023-01-28T18:17:56.895Z,93.67
2023-01-28T18:20:30.413Z,93.61
2023-01-28T18:23:01.078Z,93.70
2023-01-28T18:25:31.903Z,93.81
2023-01-28T18:28:05.889Z,93.60
2023-01-28T18:30:44.239Z,93.49
2023-01-28T18:33:12.569Z,93.72
2023-01-28T18:35:46.788Z,93.71
2023-01-28T18:38:20.886Z,93.61
2023-01-28T18:40:57.610Z,93.59
2023-01-28T18:43:29.676Z,93.51
2023-01-28T18:46:00.508Z,93.47
2023-01-28T18:48:32.316Z,93.38
2023-01-28T18:51:01.427Z,93.23
2023-01-28T18:53:35.661Z,93.22
2023-01-28T18:56:07.383Z,93.20
2023-01-28T18:58:42.780Z,93.28
2023-01-28T19:01:13.061Z,93.48
2023-01-28T19:03:45.259Z,93.64
2023-01-28T19:06:13.500Z,93.70
2023-01-28T19:08:44.928Z,93.60
2023-01-28T19:11:14.948Z,93.66
2023-01-28T19:13:54.363Z,93.91
2023-01-28T19:16:26.836Z,93.97
2023-01-28T19:19:02.825Z,93.96
2023-01-28T19:21:36.009Z,93.95
2023-01-28T19:24:10.060Z,94.15
2023-01-28T19:26:41.783Z,94.15
2023-01-28T19:29:15.417Z,94.26
2023-01-28T19:31:49.457Z,94.42
2023-01-28T19:34:17.609Z,94.32
2023-01-28T19:36:47.045Z,94.41
2023-01-28T19:39:16.670Z,94.40
2023-01-28T19:41:46.413Z,94.54
2023-01-28T19:44:17.318Z,94.58
2023-01-28T19:46:46.316Z,94.65
2023-01-28T19:49:17.954Z,94.58
2023-01-28T19:51:51.792Z,94.65
2023-01-28T19:54:21.387Z,94.78
2023-01-28T19:56:51.879Z,94.87
2023-01-28T19:59:22.255Z,95.08
2023-01-28T20:01:52.920Z,95.10
2023-01-28T20:04:23.627Z,95.03
2023-01-28T20:06:52.259Z,95.06
2023-01-28T20:09:23.337Z,95.02
2023-01-28T20:11:53.219Z,95.09
2023-01-28T20:14:23.871Z,95.22
2023-01-28T20:16:53.443Z,95.32
2023-01-28T20:19:22.724Z,95.39
2023-01-28T20:21:53.672Z,95.37
2023-01-28T20:24:22.086Z,95.20
2023-01-28T20:26:52.862Z,95.48
2023-01-28T20:29:23.054Z,95.71
2023-01-28T20:32:14.797Z,95.71
2023-01-28T20:34:45.735Z,95.85
2023-01-28T20:37:16.397Z,95.78
2023-01-28T20:39:45.882Z,95.88
2023-01-28T20:42:14.520Z,95.90
2023-01-28T20:44:42.837Z,95.85
2023-01-28T20:47:11.215Z,95.73
2023-01-28T20:49:39.534Z,96.02
2023-01-28T20:52:07.487Z,95.86
2023-01-28T20:54:35.531Z,95.60
2023-01-28T20:57:04.363Z,95.59
2023-01-28T20:59:32.836Z,95.52
2023-01-28T21:02:01.983Z,95.29
2023-01-28T21:04:30.370Z,95.34
2023-01-28T21:06:58.231Z,95.57
2023-01-28T21:09:28.132Z,95.67
2023-01-28T21:11:56.549Z,95.87
2023-01-28T21:14:24.605Z,96.14
2023-01-28T21:16:53.443Z,95.96
2023-01-28T21:19:21.633Z,95.75
2023-01-28T21:21:49.348Z,95.77
2023-01-28T21:24:17.217Z,95.83
2023-01-28T21:26:45.392Z,95.72
2023-01-28T21:29:14.869Z,95.75
2023-01-28T21:31:42.926Z,95.75
2023-01-28T21:34:11.170Z,95.92
2023-01-28T21:36:39.318Z,96.00
2023-01-28T21:39:07.152Z,96.12
2023-01-28T21:41:35.675Z,96.08
2023-01-28T21:44:03.524Z,96.19
2023-01-28T21:46:33.280Z,96.62
2023-01-28T21:49:04.363Z,96.39
2023-01-28T21:51:39.847Z,96.47
2023-01-28T21:56:59.828Z,96.56
2023-01-28T21:59:28.160Z,96.98
2023-01-28T22:02:03.850Z,97.08
2023-01-28T22:04:37.659Z,97.06
2023-01-28T22:07:08.071Z,97.10
2023-01-28T22:09:39.791Z,97.24
2023-01-28T22:12:08.391Z,97.23
2023-01-28T22:14:38.503Z,97.13
2023-01-28T22:17:12.076Z,97.16
2023-01-28T22:19:40.587Z,97.16
2023-01-28T22:22:08.494Z,97.20
2023-01-28T22:24:36.345Z,97.32
2023-01-28T22:27:04.672Z,97.20
2023-01-28T22:29:32.616Z,97.21
2023-01-28T22:32:00.878Z,97.32
2023-01-28T22:34:29.061Z,97.29
2023-01-28T22:36:56.836Z,97.35
2023-01-28T22:39:24.765Z,97.60
2023-01-28T22:41:52.989Z,97.49
2023-01-28T22:44:20.765Z,97.61
2023-01-28T22:46:48.901Z,97.70
2023-01-28T22:49:17.228Z,97.73
2023-01-28T22:51:44.991Z,97.42
2023-01-28T22:54:15.184Z,97.29
2023-01-28T22:56:43.697Z,97.36
2023-01-28T22:59:12.452Z,96.84
2023-01-28T23:01:40.637Z,97.14
2023-01-28T23:04:09.121Z,97.24
2023-01-28T23:06:37.562Z,97.31
2023-01-28T23:09:05.446Z,97.36
2023-01-28T23:11:33.691Z,97.17
2023-01-28T23:14:22.721Z,96.83
2023-01-28T23:17:09.794Z,97.25
2023-01-28T23:19:56.032Z,97.33
2023-01-28T23:22:49.186Z,97.53
2023-01-28T23:25:17.696Z,97.62
2023-01-28T23:27:49.051Z,97.76
2023-01-28T23:30:17.613Z,97.42
2023-01-28T23:32:50.271Z,97.53
2023-01-28T23:35:21.912Z,96.55
2023-01-28T23:37:50.224Z,96.91
2023-01-28T23:40:18.979Z,97.02
2023-01-28T23:42:51.443Z,96.69
2023-01-28T23:45:22.907Z,96.49
2023-01-28T23:47:50.817Z,96.70
2023-01-28T23:50:19.479Z,96.86
2023-01-28T23:52:47.345Z,97.26
2023-01-28T23:55:16.340Z,97.42
2023-01-28T23:57:44.487Z,97.35
